Time;durP1;ratioP1;P1;durP2;ratioP2;P2;SDS_P1;SDS_P2;PMS_P1;PMS_P2;Temp;Humidity;BMP_temperature;BMP_pressure;BME280_temperature;BME280_humidity;BME280_pressure;Samples;Min_cycle;Max_cycle;Signal;HPM_P1;HPM_P2
2024/04/03 00:01:09;;;;;;;14.33;11.97;;;;;;;;;;4852786;29;20229;-87
2024/04/03 00:03:38;;;;;;;15.57;11.60;;;;;;;;;;4847448;29;20228;-85
2024/04/03 00:06:08;;;;;;;15.40;12.13;;;;;;;;;;4866942;29;20230;-84
2024/04/03 00:08:34;;;;;;;13.30;11.87;;;;;;;;;;4865985;29;20236;-84
2024/04/03 00:10:59;;;;;;;13.93;11.57;;;;;;;;;;4868020;29;20225;-87
2024/04/03 00:13:28;;;;;;;13.53;11.93;;;;;;;;;;4863724;29;20226;-86
2024/04/03 00:15:54;;;;;;;15.27;12.50;;;;;;;;;;4870719;29;20225;-84
2024/04/03 00:18:23;;;;;;;12.87;11.57;;;;;;;;;;4859065;29;20236;-86
2024/04/03 00:20:50;;;;;;;13.70;12.20;;;;;;;;;;4869853;29;20726;-85
2024/04/03 00:23:16;;;;;;;14.87;12.83;;;;;;;;;;4863912;29;20237;-85
2024/04/03 00:25:42;;;;;;;13.90;12.30;;;;;;;;;;4845632;29;20380;-85
2024/04/03 00:28:07;;;;;;;13.10;11.80;;;;;;;;;;4864195;29;20234;-84
2024/04/03 00:30:39;;;;;;;13.70;12.30;;;;;;;;;;4862185;29;20225;-86
2024/04/03 00:33:04;;;;;;;13.93;11.97;;;;;;;;;;4863615;29;20325;-85
2024/04/03 00:35:30;;;;;;;12.87;11.60;;;;;;;;;;4852115;29;20217;-84
2024/04/03 00:37:58;;;;;;;12.83;11.70;;;;;;;;;;4865424;29;20696;-85
2024/04/03 00:40:23;;;;;;;14.57;12.13;;;;;;;;;;4874367;29;20230;-89
2024/04/03 00:42:49;;;;;;;14.87;12.70;;;;;;;;;;4859997;29;20593;-87
2024/04/03 00:45:16;;;;;;;13.47;12.17;;;;;;;;;;4862718;29;20733;-84
2024/04/03 00:47:42;;;;;;;14.83;11.87;;;;;;;;;;4860172;29;20236;-85
2024/04/03 00:50:10;;;;;;;14.60;12.43;;;;;;;;;;4851501;29;20221;-87
2024/04/03 00:52:35;;;;;;;14.80;11.73;;;;;;;;;;4849666;29;20704;-87
2024/04/03 00:55:01;;;;;;;16.77;12.50;;;;;;;;;;4859979;29;20241;-86
2024/04/03 00:57:29;;;;;;;15.53;12.47;;;;;;;;;;4864927;29;20221;-84
2024/04/03 00:59:57;;;;;;;15.03;12.00;;;;;;;;;;4851470;29;20226;-85
2024/04/03 01:02:25;;;;;;;15.33;11.97;;;;;;;;;;4869781;29;20255;-85
2024/04/03 01:04:53;;;;;;;14.60;12.03;;;;;;;;;;4850751;29;20237;-86
2024/04/03 01:07:22;;;;;;;14.30;11.50;;;;;;;;;;4861676;29;20254;-86
2024/04/03 01:09:47;;;;;;;16.97;12.30;;;;;;;;;;4858995;29;20229;-86
2024/04/03 01:12:15;;;;;;;15.83;12.87;;;;;;;;;;4862257;29;20225;-88
2024/04/03 01:14:43;;;;;;;13.97;11.37;;;;;;;;;;4846709;29;20705;-85
2024/04/03 01:17:11;;;;;;;13.53;11.80;;;;;;;;;;4865325;29;20233;-86
2024/04/03 01:19:37;;;;;;;16.30;12.33;;;;;;;;;;4881119;29;20504;-85
2024/04/03 01:22:07;;;;;;;15.53;12.00;;;;;;;;;;4866326;29;20316;-84
2024/04/03 01:24:33;;;;;;;16.07;11.87;;;;;;;;;;4851755;29;20253;-86
2024/04/03 01:26:58;;;;;;;16.37;12.60;;;;;;;;;;4856828;29;20285;-86
2024/04/03 01:29:29;;;;;;;13.37;11.97;;;;;;;;;;4872292;29;20255;-87
2024/04/03 01:31:57;;;;;;;14.67;12.60;;;;;;;;;;4836078;29;20229;-86
2024/04/03 01:34:22;;;;;;;15.60;13.23;;;;;;;;;;4872619;29;20309;-87
2024/04/03 01:36:48;;;;;;;15.53;12.83;;;;;;;;;;4870122;29;20811;-86
2024/04/03 01:39:15;;;;;;;21.10;13.27;;;;;;;;;;4867339;29;20239;-85
2024/04/03 01:41:44;;;;;;;15.47;13.83;;;;;;;;;;4866326;29;20222;-86
2024/04/03 01:44:14;;;;;;;16.17;13.30;;;;;;;;;;4867609;29;20292;-87
2024/04/03 01:46:42;;;;;;;15.37;13.77;;;;;;;;;;4839340;29;20724;-85
2024/04/03 01:49:08;;;;;;;16.00;13.83;;;;;;;;;;4862088;29;20587;-88
2024/04/03 01:51:33;;;;;;;16.80;13.83;;;;;;;;;;4849769;29;20289;-86
2024/04/03 01:54:01;;;;;;;15.17;13.47;;;;;;;;;;4862547;29;20281;-85
2024/04/03 01:56:26;;;;;;;18.63;14.87;;;;;;;;;;4872014;29;20228;-87
2024/04/03 01:58:52;;;;;;;16.33;14.13;;;;;;;;;;4848065;29;20234;-86
2024/04/03 02:01:19;;;;;;;15.57;13.63;;;;;;;;;;4861574;29;20592;-87
2024/04/03 02:03:46;;;;;;;17.23;13.83;;;;;;;;;;4865008;29;20233;-87
2024/04/03 02:06:14;;;;;;;15.30;13.23;;;;;;;;;;4848548;29;20225;-86
2024/04/03 02:08:40;;;;;;;16.97;13.87;;;;;;;;;;4845018;29;20248;-88
2024/04/03 02:11:08;;;;;;;16.53;13.23;;;;;;;;;;4847983;29;20229;-87
2024/04/03 02:13:33;;;;;;;14.73;13.07;;;;;;;;;;4866715;29;20231;-86
2024/04/03 02:15:59;;;;;;;17.90;13.70;;;;;;;;;;4861890;29;20225;-87
2024/04/03 02:18:26;;;;;;;17.80;13.93;;;;;;;;;;4849415;29;20319;-86
2024/04/03 02:20:52;;;;;;;15.17;13.30;;;;;;;;;;4832852;29;20213;-87
2024/04/03 02:23:20;;;;;;;18.53;13.20;;;;;;;;;;4846513;29;20259;-85
2024/04/03 02:25:51;;;;;;;17.93;13.33;;;;;;;;;;4836514;29;20256;-87
2024/04/03 02:28:16;;;;;;;19.20;13.87;;;;;;;;;;4864614;29;20292;-86
2024/04/03 02:30:42;;;;;;;16.50;14.23;;;;;;;;;;4842802;29;20679;-88
2024/04/03 02:33:10;;;;;;;17.60;13.70;;;;;;;;;;4866788;29;20233;-86
2024/04/03 02:35:40;;;;;;;16.27;12.73;;;;;;;;;;4845324;29;20743;-86
2024/04/03 02:38:11;;;;;;;17.13;13.70;;;;;;;;;;4862092;29;20237;-86
2024/04/03 02:40:37;;;;;;;15.87;13.90;;;;;;;;;;4838757;29;20254;-86
2024/04/03 02:43:02;;;;;;;18.10;13.23;;;;;;;;;;4876913;29;20616;-87
2024/04/03 02:45:28;;;;;;;15.63;12.57;;;;;;;;;;4841637;29;20268;-88
2024/04/03 02:47:55;;;;;;;18.67;13.70;;;;;;;;;;4849170;29;20234;-87
2024/04/03 02:50:20;;;;;;;15.47;12.57;;;;;;;;;;4863873;29;20232;-87
2024/04/03 02:52:48;;;;;;;19.07;12.70;;;;;;;;;;4862178;29;20233;-87
2024/04/03 02:55:13;;;;;;;18.03;12.93;;;;;;;;;;4859109;29;20715;-86
2024/04/03 02:57:39;;;;;;;19.67;12.53;;;;;;;;;;4851787;29;20232;-86
2024/04/03 03:00:05;;;;;;;17.60;13.03;;;;;;;;;;4860880;29;20244;-87
2024/04/03 03:02:33;;;;;;;16.37;12.60;;;;;;;;;;4847577;29;20258;-86
2024/04/03 03:04:58;;;;;;;16.67;12.73;;;;;;;;;;4858967;29;20249;-87
2024/04/03 03:07:28;;;;;;;18.30;13.57;;;;;;;;;;4848782;29;20230;-87
2024/04/03 03:09:56;;;;;;;19.87;12.80;;;;;;;;;;4864516;29;20225;-87
2024/04/03 03:12:24;;;;;;;19.33;12.90;;;;;;;;;;4862457;29;20278;-87
2024/04/03 03:14:55;;;;;;;17.73;12.17;;;;;;;;;;4840687;29;20889;-87
2024/04/03 03:17:25;;;;;;;14.67;12.70;;;;;;;;;;4863009;29;26169;-87
2024/04/03 03:19:52;;;;;;;15.97;13.33;;;;;;;;;;4860936;29;20221;-87
2024/04/03 03:22:23;;;;;;;20.47;13.20;;;;;;;;;;4850093;29;20310;-87
2024/04/03 03:24:51;;;;;;;17.87;13.20;;;;;;;;;;4864761;29;20308;-86
2024/04/03 03:27:18;;;;;;;14.73;12.23;;;;;;;;;;4849147;29;20616;-87
2024/04/03 03:29:44;;;;;;;16.07;12.30;;;;;;;;;;4845488;29;20328;-87
2024/04/03 03:32:09;;;;;;;21.10;13.03;;;;;;;;;;4866525;29;20228;-87
2024/04/03 03:34:37;;;;;;;16.63;12.73;;;;;;;;;;4867104;29;20222;-86
2024/04/03 03:37:03;;;;;;;17.07;12.00;;;;;;;;;;4841280;29;20218;-87
2024/04/03 03:39:31;;;;;;;16.90;13.17;;;;;;;;;;4845952;29;20301;-86
2024/04/03 03:41:57;;;;;;;20.50;13.33;;;;;;;;;;4864029;29;20578;-87
2024/04/03 03:44:24;;;;;;;14.60;11.47;;;;;;;;;;4864421;29;20232;-86
2024/04/03 03:46:56;;;;;;;17.87;12.73;;;;;;;;;;4864603;29;20707;-86
2024/04/03 03:54:52;;;;;;;16.77;11.67;;;;;;;;;;4873006;29;20226;-86
2024/04/03 03:57:20;;;;;;;20.60;12.20;;;;;;;;;;4854809;29;20278;-77
2024/04/03 04:03:34;;;;;;;15.63;12.17;;;;;;;;;;4874151;29;20347;-77
2024/04/03 04:06:02;;;;;;;22.50;12.33;;;;;;;;;;4854886;29;20249;-79
2024/04/03 04:08:33;;;;;;;17.53;12.07;;;;;;;;;;4872818;29;20256;-78
2024/04/03 04:11:02;;;;;;;15.80;12.00;;;;;;;;;;4873532;29;20324;-78
2024/04/03 04:13:30;;;;;;;20.47;12.10;;;;;;;;;;4885627;29;20695;-78
2024/04/03 04:16:00;;;;;;;17.70;12.50;;;;;;;;;;4872403;29;20244;-78
2024/04/03 04:18:30;;;;;;;19.93;12.37;;;;;;;;;;4848838;29;20231;-78
2024/04/03 04:20:56;;;;;;;16.83;12.30;;;;;;;;;;4859230;29;20233;-79
2024/04/03 04:23:24;;;;;;;16.13;11.27;;;;;;;;;;4858648;29;20737;-79
2024/04/03 04:25:55;;;;;;;16.00;12.30;;;;;;;;;;4874144;29;20321;-78
2024/04/03 04:28:25;;;;;;;18.10;12.10;;;;;;;;;;4834954;29;20237;-77
2024/04/03 04:31:01;;;;;;;15.50;11.90;;;;;;;;;;4841593;29;20236;-78
2024/04/03 04:33:33;;;;;;;18.20;11.60;;;;;;;;;;4855675;29;20248;-78
2024/04/03 04:35:59;;;;;;;20.30;11.37;;;;;;;;;;4876838;29;20221;-79
2024/04/03 04:38:25;;;;;;;21.07;11.63;;;;;;;;;;4829963;29;20248;-77
2024/04/03 04:41:01;;;;;;;15.43;11.47;;;;;;;;;;4859796;29;20221;-79
2024/04/03 04:43:27;;;;;;;19.83;11.80;;;;;;;;;;4890889;29;20921;-78
2024/04/03 04:45:57;;;;;;;15.47;11.80;;;;;;;;;;4860731;29;20246;-75
2024/04/03 04:48:26;;;;;;;17.80;11.30;;;;;;;;;;4876244;29;20237;-78
2024/04/03 04:50:58;;;;;;;15.57;10.53;;;;;;;;;;4848302;29;21130;-77
2024/04/03 04:53:24;;;;;;;18.50;11.40;;;;;;;;;;4863016;29;20260;-79
2024/04/03 04:56:08;;;;;;;18.30;11.00;;;;;;;;;;4873962;29;20695;-78
2024/04/03 04:58:33;;;;;;;17.57;10.83;;;;;;;;;;4846064;29;20237;-78
2024/04/03 05:01:02;;;;;;;20.07;11.17;;;;;;;;;;4845270;29;20225;-79
2024/04/03 05:03:29;;;;;;;17.50;11.30;;;;;;;;;;4876641;29;20236;-78
2024/04/03 05:05:56;;;;;;;18.50;11.63;;;;;;;;;;4864175;29;20261;-76
2024/04/03 05:08:22;;;;;;;19.87;10.77;;;;;;;;;;4836535;29;20297;-78
2024/04/03 05:10:54;;;;;;;19.23;10.90;;;;;;;;;;4862675;29;20225;-79
2024/04/03 05:13:20;;;;;;;19.17;10.20;;;;;;;;;;4862102;29;20226;-79
2024/04/03 05:15:45;;;;;;;14.73;9.70;;;;;;;;;;4857669;29;20213;-78
2024/04/03 05:18:16;;;;;;;16.27;9.63;;;;;;;;;;4863082;29;20281;-77
2024/04/03 05:20:44;;;;;;;21.00;10.77;;;;;;;;;;4847358;29;20222;-79
2024/04/03 05:23:10;;;;;;;20.70;11.87;;;;;;;;;;4877328;29;20699;-78
2024/04/03 05:25:36;;;;;;;20.13;11.10;;;;;;;;;;4873560;29;20234;-76
2024/04/03 05:28:04;;;;;;;17.43;10.17;;;;;;;;;;4861148;29;20229;-78
2024/04/03 05:30:33;;;;;;;17.00;10.47;;;;;;;;;;4846560;29;20225;-78
2024/04/03 05:32:59;;;;;;;17.90;9.57;;;;;;;;;;4847785;29;20610;-78
2024/04/03 05:35:32;;;;;;;17.60;9.13;;;;;;;;;;4865973;29;20221;-78
2024/04/03 05:38:01;;;;;;;15.37;9.43;;;;;;;;;;4862818;29;20233;-77
2024/04/03 05:40:27;;;;;;;20.73;9.43;;;;;;;;;;4889097;29;20313;-77
2024/04/03 05:42:55;;;;;;;16.37;9.10;;;;;;;;;;4881203;29;20229;-76
2024/04/03 05:45:21;;;;;;;15.30;9.20;;;;;;;;;;4861495;29;20689;-78
2024/04/03 05:47:46;;;;;;;17.97;9.83;;;;;;;;;;4847646;29;20238;-80
2024/04/03 05:50:12;;;;;;;13.30;9.00;;;;;;;;;;4862100;29;20244;-78
2024/04/03 05:52:40;;;;;;;17.73;9.13;;;;;;;;;;4846032;29;20225;-78
2024/04/03 05:55:06;;;;;;;16.80;8.93;;;;;;;;;;4863486;29;20277;-78
2024/04/03 05:57:31;;;;;;;13.90;8.33;;;;;;;;;;4858592;29;20610;-77
2024/04/03 05:59:57;;;;;;;15.33;9.07;;;;;;;;;;4863637;29;20229;-79
2024/04/03 06:02:25;;;;;;;16.37;8.67;;;;;;;;;;4864219;29;20245;-79
2024/04/03 06:04:53;;;;;;;14.67;8.33;;;;;;;;;;4874720;29;20348;-77
2024/04/03 06:07:18;;;;;;;14.53;8.43;;;;;;;;;;4873084;29;20246;-79
2024/04/03 06:09:46;;;;;;;17.97;8.77;;;;;;;;;;4874314;29;20256;-79
2024/04/03 06:12:16;;;;;;;13.87;8.23;;;;;;;;;;4862810;29;20310;-80
2024/04/03 06:14:42;;;;;;;16.50;8.27;;;;;;;;;;4891689;29;20879;-78
2024/04/03 06:17:11;;;;;;;17.43;8.30;;;;;;;;;;4892925;29;20230;-77
2024/04/03 06:19:36;;;;;;;12.43;8.00;;;;;;;;;;4864500;29;20222;-77
2024/04/03 06:22:02;;;;;;;13.43;8.20;;;;;;;;;;4861377;29;20302;-76
2024/04/03 06:24:27;;;;;;;16.07;8.83;;;;;;;;;;4846813;29;20237;-79
2024/04/03 06:26:55;;;;;;;15.57;9.03;;;;;;;;;;4878323;29;20229;-79
2024/04/03 06:29:21;;;;;;;12.97;8.40;;;;;;;;;;4862158;29;20273;-79
2024/04/03 06:31:47;;;;;;;13.60;8.60;;;;;;;;;;4865157;29;20229;-76
2024/04/03 06:34:14;;;;;;;16.93;8.67;;;;;;;;;;4863859;29;20235;-78
2024/04/03 06:36:39;;;;;;;15.37;9.13;;;;;;;;;;4859954;29;20292;-79
2024/04/03 06:39:06;;;;;;;14.67;8.70;;;;;;;;;;4860878;29;20667;-78
2024/04/03 06:41:32;;;;;;;15.50;8.70;;;;;;;;;;4860735;29;21058;-79
2024/04/03 06:44:00;;;;;;;13.37;8.77;;;;;;;;;;4845891;29;20233;-79
2024/04/03 06:46:30;;;;;;;16.47;9.40;;;;;;;;;;4860482;29;20221;-77
2024/04/03 06:48:58;;;;;;;16.00;9.90;;;;;;;;;;4863041;29;20873;-80
2024/04/03 06:51:26;;;;;;;16.70;9.30;;;;;;;;;;4861122;29;20230;-79
2024/04/03 06:53:52;;;;;;;15.47;9.60;;;;;;;;;;4863876;29;20248;-80
2024/04/03 06:56:17;;;;;;;14.90;9.23;;;;;;;;;;4861352;29;20221;-77
2024/04/03 06:58:45;;;;;;;17.30;9.90;;;;;;;;;;4846850;29;20305;-77
2024/04/03 07:01:11;;;;;;;13.17;9.17;;;;;;;;;;4860917;29;20799;-80
2024/04/03 07:03:39;;;;;;;15.93;9.97;;;;;;;;;;4846190;29;20714;-78
2024/04/03 07:06:08;;;;;;;15.93;9.70;;;;;;;;;;4847304;29;20234;-78
2024/04/03 07:08:34;;;;;;;20.43;10.30;;;;;;;;;;4864728;29;20230;-76
2024/04/03 07:11:02;;;;;;;14.80;10.10;;;;;;;;;;4864655;29;20240;-79
2024/04/03 07:13:28;;;;;;;14.80;9.80;;;;;;;;;;4852252;29;20876;-77
2024/04/03 07:15:54;;;;;;;16.53;10.77;;;;;;;;;;4832526;29;20225;-77
2024/04/03 07:18:19;;;;;;;17.63;10.47;;;;;;;;;;4862805;29;20297;-80
2024/04/03 07:20:55;;;;;;;19.23;11.90;;;;;;;;;;4861731;29;20225;-78
2024/04/03 07:23:27;;;;;;;16.03;10.53;;;;;;;;;;4861471;29;20285;-80
2024/04/03 07:25:58;;;;;;;18.77;11.37;;;;;;;;;;4859654;29;20233;-77
2024/04/03 07:28:28;;;;;;;17.47;11.70;;;;;;;;;;4870481;29;20240;-80
2024/04/03 07:30:54;;;;;;;17.13;11.30;;;;;;;;;;4858579;29;20316;-78
2024/04/03 07:33:21;;;;;;;18.37;11.33;;;;;;;;;;4857216;29;20226;-78
2024/04/03 07:35:48;;;;;;;19.43;12.27;;;;;;;;;;4876140;29;20224;-79
2024/04/03 07:38:14;;;;;;;19.47;12.43;;;;;;;;;;4843425;29;20234;-79
2024/04/03 07:40:45;;;;;;;20.10;12.57;;;;;;;;;;4846185;29;20225;-78
2024/04/03 07:43:10;;;;;;;17.83;11.73;;;;;;;;;;4854329;29;20239;-79
2024/04/03 07:45:36;;;;;;;21.70;13.00;;;;;;;;;;4859852;29;20245;-78
2024/04/03 07:48:02;;;;;;;21.33;12.50;;;;;;;;;;4843688;29;20236;-79
2024/04/03 07:50:28;;;;;;;21.60;12.97;;;;;;;;;;4856862;29;20260;-79
2024/04/03 07:52:54;;;;;;;22.47;13.10;;;;;;;;;;4861344;29;20236;-77
2024/04/03 07:55:20;;;;;;;19.73;13.07;;;;;;;;;;4862013;29;20218;-78
2024/04/03 07:57:45;;;;;;;21.70;13.80;;;;;;;;;;4878342;29;20276;-78
2024/04/03 08:00:13;;;;;;;20.63;13.83;;;;;;;;;;4859039;29;20746;-76
2024/04/03 08:02:41;;;;;;;20.53;13.77;;;;;;;;;;4873497;29;20270;-79
2024/04/03 08:05:10;;;;;;;19.37;13.77;;;;;;;;;;4846805;29;20248;-77
2024/04/03 08:07:36;;;;;;;18.83;13.93;;;;;;;;;;4862128;29;20755;-78
2024/04/03 08:10:11;;;;;;;21.87;13.93;;;;;;;;;;4868054;29;20285;-78
2024/04/03 08:12:42;;;;;;;22.80;13.97;;;;;;;;;;4850138;29;20292;-79
2024/04/03 08:15:14;;;;;;;21.93;14.53;;;;;;;;;;4878360;29;20263;-80
2024/04/03 08:17:39;;;;;;;18.57;14.10;;;;;;;;;;4880130;29;20231;-80
2024/04/03 08:20:06;;;;;;;20.67;14.40;;;;;;;;;;4848900;29;20234;-78
2024/04/03 08:22:34;;;;;;;19.37;14.00;;;;;;;;;;4881522;29;20225;-79
2024/04/03 08:25:07;;;;;;;20.70;14.73;;;;;;;;;;4867140;29;20230;-78
2024/04/03 08:27:33;;;;;;;20.07;14.10;;;;;;;;;;4834375;29;20687;-78
2024/04/03 08:29:59;;;;;;;19.90;14.17;;;;;;;;;;4865003;29;20244;-79
2024/04/03 08:32:24;;;;;;;19.77;13.70;;;;;;;;;;4832182;29;20229;-79
2024/04/03 08:34:51;;;;;;;17.33;13.43;;;;;;;;;;4863379;29;20346;-80
2024/04/03 08:37:22;;;;;;;18.10;13.70;;;;;;;;;;4849748;29;20373;-77
2024/04/03 08:39:51;;;;;;;17.80;13.53;;;;;;;;;;4879783;29;20239;-77
2024/04/03 08:42:19;;;;;;;17.00;13.77;;;;;;;;;;4892874;29;20230;-78
2024/04/03 08:44:47;;;;;;;17.07;13.40;;;;;;;;;;4864705;29;20264;-78
2024/04/03 08:47:13;;;;;;;15.50;12.53;;;;;;;;;;4860815;29;20268;-79
2024/04/03 08:49:39;;;;;;;17.80;13.20;;;;;;;;;;4862856;29;20710;-79
2024/04/03 08:52:13;;;;;;;17.07;12.37;;;;;;;;;;4846127;29;20233;-78
2024/04/03 08:54:42;;;;;;;21.67;13.27;;;;;;;;;;4848518;29;20249;-77
2024/04/03 08:57:11;;;;;;;19.47;12.97;;;;;;;;;;4838885;29;20321;-80
2024/04/03 08:59:40;;;;;;;16.93;12.53;;;;;;;;;;4850793;29;20321;-79
2024/04/03 09:02:06;;;;;;;16.77;12.90;;;;;;;;;;4878197;29;20352;-78
2024/04/03 09:04:32;;;;;;;14.73;12.47;;;;;;;;;;4846289;29;20301;-78
2024/04/03 09:06:58;;;;;;;15.20;12.57;;;;;;;;;;4861029;29;20572;-78
2024/04/03 09:09:25;;;;;;;16.73;12.17;;;;;;;;;;4843147;29;20229;-77
2024/04/03 09:11:51;;;;;;;13.30;11.13;;;;;;;;;;4858588;29;20222;-77
2024/04/03 09:14:24;;;;;;;14.73;11.40;;;;;;;;;;4879046;29;20287;-77
2024/04/03 09:17:07;;;;;;;13.40;11.80;;;;;;;;;;4877556;29;20216;-77
2024/04/03 09:19:33;;;;;;;16.20;12.20;;;;;;;;;;4843220;29;20463;-77
2024/04/03 09:22:02;;;;;;;14.00;11.10;;;;;;;;;;4847136;29;20325;-78
2024/04/03 09:24:37;;;;;;;14.40;10.90;;;;;;;;;;4859810;29;20310;-77
2024/04/03 09:27:10;;;;;;;12.03;10.60;;;;;;;;;;4877204;29;20229;-79
2024/04/03 09:29:39;;;;;;;11.87;10.43;;;;;;;;;;4862068;29;20229;-77
2024/04/03 09:32:08;;;;;;;12.60;10.17;;;;;;;;;;4846894;29;20225;-76
2024/04/03 09:34:34;;;;;;;12.27;9.70;;;;;;;;;;4873841;29;20879;-77
2024/04/03 09:37:03;;;;;;;11.37;8.93;;;;;;;;;;4860457;29;20232;-78
2024/04/03 09:39:31;;;;;;;9.60;8.53;;;;;;;;;;4859379;29;20237;-77
2024/04/03 09:42:04;;;;;;;10.33;8.17;;;;;;;;;;4861395;29;20221;-77
2024/04/03 09:44:32;;;;;;;9.63;8.30;;;;;;;;;;4847899;29;20233;-76
2024/04/03 09:46:59;;;;;;;8.53;7.63;;;;;;;;;;4862669;29;20225;-78
2024/04/03 09:49:27;;;;;;;8.77;7.83;;;;;;;;;;4878795;29;20666;-78
2024/04/03 09:51:56;;;;;;;9.47;7.50;;;;;;;;;;4862549;29;20222;-79
2024/04/03 09:54:24;;;;;;;9.33;7.30;;;;;;;;;;4844529;29;20282;-78
2024/04/03 09:56:53;;;;;;;11.47;7.67;;;;;;;;;;4877205;29;20218;-77
2024/04/03 09:59:18;;;;;;;9.17;7.23;;;;;;;;;;4861405;29;20245;-78
2024/04/03 10:01:45;;;;;;;9.17;6.93;;;;;;;;;;4848143;29;20226;-78
2024/04/03 10:04:10;;;;;;;9.93;7.73;;;;;;;;;;4862040;29;20596;-79
2024/04/03 10:06:39;;;;;;;10.80;6.77;;;;;;;;;;4862659;29;20230;-78
2024/04/03 10:09:17;;;;;;;9.20;7.00;;;;;;;;;;4876596;29;20808;-78
2024/04/03 10:11:59;;;;;;;10.17;6.70;;;;;;;;;;4892960;29;20233;-78
2024/04/03 10:14:32;;;;;;;8.37;7.23;;;;;;;;;;4861683;29;20225;-77
2024/04/03 10:16:58;;;;;;;7.53;5.63;;;;;;;;;;4861147;29;20284;-77
2024/04/03 10:19:29;;;;;;;9.50;6.50;;;;;;;;;;4862405;29;20332;-78
2024/04/03 10:21:56;;;;;;;8.67;6.50;;;;;;;;;;4863736;29;20245;-78
2024/04/03 10:24:25;;;;;;;9.00;6.20;;;;;;;;;;4880596;29;20242;-78
2024/04/03 10:26:50;;;;;;;9.60;5.88;;;;;;;;;;4863590;29;20213;-77
2024/04/03 10:29:16;;;;;;;10.17;5.77;;;;;;;;;;4858011;29;20700;-77
2024/04/03 10:31:46;;;;;;;8.17;5.50;;;;;;;;;;4864068;29;20225;-79
2024/04/03 10:34:12;;;;;;;8.38;5.90;;;;;;;;;;4893328;29;20229;-79
2024/04/03 10:36:38;;;;;;;11.43;5.80;;;;;;;;;;4861842;29;20653;-79
2024/04/03 10:39:05;;;;;;;7.57;5.40;;;;;;;;;;4879660;29;20238;-79
2024/04/03 10:41:33;;;;;;;10.20;5.30;;;;;;;;;;4865041;29;20225;-78
2024/04/03 10:44:00;;;;;;;7.30;4.80;;;;;;;;;;4831852;29;20615;-79
2024/04/03 10:46:28;;;;;;;6.45;4.65;;;;;;;;;;4863786;29;20236;-76
2024/04/03 10:48:55;;;;;;;6.37;4.23;;;;;;;;;;4843200;29;20226;-78
2024/04/03 10:51:23;;;;;;;6.10;4.07;;;;;;;;;;4869142;29;20234;-77
2024/04/03 10:53:52;;;;;;;6.37;3.90;;;;;;;;;;4882309;29;20222;-80
2024/04/03 10:56:18;;;;;;;9.83;3.67;;;;;;;;;;4864597;29;20252;-78
2024/04/03 10:58:48;;;;;;;6.63;3.63;;;;;;;;;;4850208;29;20225;-79
2024/04/03 11:01:14;;;;;;;6.38;3.65;;;;;;;;;;4863842;29;20236;-77
2024/04/03 11:03:42;;;;;;;7.40;3.63;;;;;;;;;;4861745;29;20699;-79
2024/04/03 11:06:09;;;;;;;8.10;4.50;;;;;;;;;;4858188;29;20296;-78
2024/04/03 11:08:35;;;;;;;8.20;4.40;;;;;;;;;;4875558;29;20241;-78
2024/04/03 11:11:12;;;;;;;6.37;3.60;;;;;;;;;;4858159;29;20262;-78
2024/04/03 11:13:46;;;;;;;5.15;3.25;;;;;;;;;;4842490;29;20277;-78
2024/04/03 11:16:11;;;;;;;5.28;2.97;;;;;;;;;;4843790;29;20695;-77
2024/04/03 11:18:41;;;;;;;6.03;3.20;;;;;;;;;;4860952;29;20245;-78
2024/04/03 11:21:10;;;;;;;6.60;3.23;;;;;;;;;;4862698;29;20226;-79
2024/04/03 11:23:40;;;;;;;5.13;3.10;;;;;;;;;;4861127;29;20233;-78
2024/04/03 11:26:05;;;;;;;7.47;3.53;;;;;;;;;;4845004;29;20241;-78
2024/04/03 11:28:35;;;;;;;9.00;3.50;;;;;;;;;;4846387;29;20284;-77
2024/04/03 11:31:03;;;;;;;5.73;3.00;;;;;;;;;;4880934;29;20221;-76
2024/04/03 11:33:43;;;;;;;3.70;2.60;;;;;;;;;;4845608;29;20297;-78
2024/04/03 11:36:24;;;;;;;3.83;2.27;;;;;;;;;;4883713;29;20229;-79
2024/04/03 11:38:52;;;;;;;4.73;2.80;;;;;;;;;;4842243;29;20226;-78
2024/04/03 11:41:18;;;;;;;3.50;2.70;;;;;;;;;;4842858;29;20576;-79
2024/04/03 11:43:43;;;;;;;5.03;2.53;;;;;;;;;;4856187;29;20253;-79
2024/04/03 11:46:09;;;;;;;6.10;2.80;;;;;;;;;;4871451;29;20237;-78
2024/04/03 11:48:34;;;;;;;5.40;2.75;;;;;;;;;;4844936;29;20263;-79
2024/04/03 11:51:00;;;;;;;5.63;2.50;;;;;;;;;;4860767;29;20234;-78
2024/04/03 11:53:28;;;;;;;4.23;2.40;;;;;;;;;;4857412;29;20233;-78
2024/04/03 11:55:55;;;;;;;3.83;2.47;;;;;;;;;;4842597;29;20233;-78
2024/04/03 11:58:24;;;;;;;4.20;2.50;;;;;;;;;;4865614;29;20592;-78
2024/04/03 12:00:49;;;;;;;2.87;2.37;;;;;;;;;;4845393;29;20225;-78
2024/04/03 12:03:16;;;;;;;3.07;2.50;;;;;;;;;;4845042;29;21182;-78
2024/04/03 12:05:43;;;;;;;4.33;2.80;;;;;;;;;;4874021;29;20225;-78
2024/04/03 12:08:09;;;;;;;4.37;2.50;;;;;;;;;;4889886;29;20225;-78
2024/04/03 12:10:35;;;;;;;3.70;2.60;;;;;;;;;;4837880;29;20238;-77
2024/04/03 12:13:00;;;;;;;4.00;2.70;;;;;;;;;;4869244;29;20221;-77
2024/04/03 12:15:28;;;;;;;4.00;2.60;;;;;;;;;;4855745;29;20284;-78
2024/04/03 12:17:54;;;;;;;3.53;2.40;;;;;;;;;;4855667;29;20233;-78
2024/04/03 12:20:20;;;;;;;3.50;2.77;;;;;;;;;;4855363;29;20225;-78
2024/04/03 12:22:46;;;;;;;6.43;3.40;;;;;;;;;;4843597;29;20225;-77
2024/04/03 12:25:12;;;;;;;5.47;3.67;;;;;;;;;;4853809;29;20238;-78
2024/04/03 12:27:39;;;;;;;4.53;4.07;;;;;;;;;;4854358;29;20221;-78
2024/04/03 12:30:06;;;;;;;5.50;4.33;;;;;;;;;;4844028;29;20229;-78
2024/04/03 12:32:32;;;;;;;8.43;4.03;;;;;;;;;;4872187;29;20237;-78
2024/04/03 12:34:57;;;;;;;4.85;4.30;;;;;;;;;;4842206;29;20258;-79
2024/04/03 12:37:25;;;;;;;5.17;4.10;;;;;;;;;;4857644;29;20271;-78
2024/04/03 12:39:55;;;;;;;5.50;4.28;;;;;;;;;;4873468;29;20229;-78
2024/04/03 12:42:21;;;;;;;4.53;4.00;;;;;;;;;;4842624;29;20342;-78
2024/04/03 12:44:47;;;;;;;4.80;3.45;;;;;;;;;;4858754;29;20727;-80
2024/04/03 12:47:14;;;;;;;3.70;3.30;;;;;;;;;;4887235;29;20234;-78
2024/04/03 12:49:40;;;;;;;3.50;3.20;;;;;;;;;;4820300;29;20321;-79
2024/04/03 12:52:08;;;;;;;3.30;2.97;;;;;;;;;;4862196;29;20234;-79
2024/04/03 12:54:37;;;;;;;3.50;3.13;;;;;;;;;;4877809;29;20648;-78
2024/04/03 12:57:03;;;;;;;4.43;3.10;;;;;;;;;;4860403;29;20578;-77
2024/04/03 12:59:28;;;;;;;3.03;2.70;;;;;;;;;;4870965;29;20300;-79
2024/04/03 13:01:54;;;;;;;3.00;2.80;;;;;;;;;;4871546;29;20236;-78
2024/04/03 13:04:21;;;;;;;5.60;4.78;;;;;;;;;;4857966;29;20233;-78
2024/04/03 13:06:47;;;;;;;13.47;12.23;;;;;;;;;;4844941;29;20221;-78
2024/04/03 13:09:13;;;;;;;3.47;3.00;;;;;;;;;;4858172;29;20225;-78
2024/04/03 13:11:44;;;;;;;3.10;2.80;;;;;;;;;;4856785;29;20256;-77
2024/04/03 13:14:12;;;;;;;4.97;2.67;;;;;;;;;;4843889;29;20274;-78
2024/04/03 13:16:40;;;;;;;2.67;2.47;;;;;;;;;;4824019;29;20225;-77
2024/04/03 13:19:06;;;;;;;4.50;2.50;;;;;;;;;;4844275;29;20573;-78
2024/04/03 13:21:33;;;;;;;2.60;2.40;;;;;;;;;;4859871;29;20265;-79
2024/04/03 13:23:58;;;;;;;2.70;2.50;;;;;;;;;;4862734;29;20229;-78
2024/04/03 13:26:24;;;;;;;2.97;2.30;;;;;;;;;;4875816;29;20233;-78
2024/04/03 13:28:54;;;;;;;3.70;2.47;;;;;;;;;;4864218;29;20233;-79
2024/04/03 13:31:20;;;;;;;4.13;2.55;;;;;;;;;;4864389;29;20236;-79
2024/04/03 13:33:50;;;;;;;3.50;2.53;;;;;;;;;;4860898;29;20217;-78
2024/04/03 13:36:16;;;;;;;4.20;2.30;;;;;;;;;;4877154;29;20766;-78
2024/04/03 13:38:45;;;;;;;3.53;2.20;;;;;;;;;;4863090;29;20240;-78
2024/04/03 13:41:13;;;;;;;2.43;2.03;;;;;;;;;;4846947;29;20222;-79
2024/04/03 13:43:40;;;;;;;3.37;2.20;;;;;;;;;;4873101;29;20300;-80
2024/04/03 13:46:06;;;;;;;4.00;2.10;;;;;;;;;;4879571;29;20248;-80
2024/04/03 13:48:31;;;;;;;2.93;2.03;;;;;;;;;;4861233;29;20234;-79
2024/04/03 13:50:58;;;;;;;3.57;2.80;;;;;;;;;;4863512;29;20277;-80
2024/04/03 13:53:23;;;;;;;3.97;2.67;;;;;;;;;;4849616;29;20249;-79
2024/04/03 13:56:04;;;;;;;2.60;2.30;;;;;;;;;;4866080;29;20248;-78
2024/04/03 13:58:32;;;;;;;3.33;2.30;;;;;;;;;;4862714;29;20240;-78
2024/04/03 14:01:01;;;;;;;3.03;1.90;;;;;;;;;;4861266;29;20225;-78
2024/04/03 14:03:32;;;;;;;2.40;2.10;;;;;;;;;;4891030;29;20225;-79
2024/04/03 14:06:00;;;;;;;2.30;2.10;;;;;;;;;;4848991;29;20244;-78
2024/04/03 14:08:26;;;;;;;3.30;2.40;;;;;;;;;;4878741;29;20230;-78
2024/04/03 14:10:54;;;;;;;3.77;2.70;;;;;;;;;;4863302;29;20244;-78
2024/04/03 14:13:22;;;;;;;3.97;2.63;;;;;;;;;;4848741;29;20258;-78
2024/04/03 14:15:48;;;;;;;2.87;2.57;;;;;;;;;;4862915;29;20301;-80
2024/04/03 14:18:15;;;;;;;3.17;2.40;;;;;;;;;;4868980;29;20232;-77
2024/04/03 14:20:41;;;;;;;2.37;2.17;;;;;;;;;;4866107;29;20225;-79
2024/04/03 14:23:07;;;;;;;2.80;1.97;;;;;;;;;;4879554;29;20317;-79
2024/04/03 14:25:33;;;;;;;2.07;1.60;;;;;;;;;;4862279;29;20237;-78
2024/04/03 14:27:59;;;;;;;2.05;1.42;;;;;;;;;;4879519;29;20786;-78
2024/04/03 14:30:28;;;;;;;1.98;1.58;;;;;;;;;;4891913;29;20277;-79
2024/04/03 14:32:57;;;;;;;3.80;1.45;;;;;;;;;;4864308;29;20225;-79
2024/04/03 14:35:23;;;;;;;1.63;1.20;;;;;;;;;;4859219;29;20233;-79
2024/04/03 14:37:50;;;;;;;1.60;1.50;;;;;;;;;;4845377;29;20257;-77